Providence, Rhode Island
Traffic Map
Current Weather Conditions
Providence, Rhode Island
Broken Clouds
Broken Clouds
77°
Feels Like: 79°
Wind Chill: 77° Ceiling: 2500
Heat Index: 79° Visibility: 10mi
Dew Point: 70° Wind: 20mph
Humidity: 79% Direction: 220° (SW)
Pressure: 29.67in Gusts: 29mph
Raw Report DataKPVD 232120Z 22017G25KT 10SM BKN025 BKN035 25/21 A2967 RMK AO2 PK WND 19026/2110 T02500211
Traffic Incident Summary
Active as of:
Severity:
Category:
InformationThere was an issue retrieving the traffic information for this location. Please try a different location or try again shortly.
Advertisements
Track Severe Weather on mobile